Katowice International Airport Katowice PL
ICAO: EPKT
IATA: KTW
Category: Large
Scheduled Services: Yes

Elevation: 995 ft
TransAlt. 6500 ft.

Airport Communications:
APP:121.075
HANDLING:131.45
TWR:129.25

EPKT Zoom In..

If you have problems with the map follow the link
https://www.worldairports.se/pages/airport.php?
ICAO=EPKT

Runways:

(A) RW 09 length 9186 ft width 197 ft
---- / hdg 86

(B) RW 27 length 9186 ft width 197 ft
ILS 109.90 / hdg 266

Location; EPKT
Day. 05 / Time. 14.00 Zulu
* QNH: 1021
* Temperature: -00° c. -32°f.
* Wind from: EPK° Speed T kn.
Dewpoint: -05° c.
Visibility: 10 km or more,
No clouds below 1,500 m.
No cumulonimbus, and no significant weather
fenomena in the aerodrome or its vicinity.

EPKT 051400Z 23013KT CAVOK M00/M05 Q1021


Wind From EPK°
Speed T kn.

 
 
jpsmedia worldairports.se 2019   terms of use